Time;durP1;ratioP1;P1;durP2;ratioP2;P2;SDS_P1;SDS_P2;PMS_P1;PMS_P2;Temp;Humidity;BMP_temperature;BMP_pressure;BME280_temperature;BME280_humidity;BME280_pressure;Samples;Min_cycle;Max_cycle;Signal;HPM_P1;HPM_P2
2023/06/14 00:02:14;;;;;;;7.72;7.05;;;;;;;16.96;55.79;100447.59;6030930;23;20082;-70
2023/06/14 00:04:41;;;;;;;7.72;6.80;;;;;;;16.89;56.42;100452.53;6034848;23;20035;-69
2023/06/14 00:07:08;;;;;;;7.38;6.78;;;;;;;16.78;56.77;100441.97;6026270;23;20077;-69
2023/06/14 00:09:37;;;;;;;6.82;6.32;;;;;;;16.75;57.03;100455.47;6030453;23;20054;-70
2023/06/14 00:12:03;;;;;;;8.48;7.72;;;;;;;16.38;56.52;100397.53;6058579;23;20045;-70
2023/06/14 00:14:32;;;;;;;7.45;6.63;;;;;;;16.67;57.09;100456.09;6032597;23;20031;-70
2023/06/14 00:16:58;;;;;;;7.30;6.50;;;;;;;16.53;57.23;100435.19;6057366;23;20077;-70
2023/06/14 00:19:26;;;;;;;7.95;7.18;;;;;;;16.63;57.38;100459.13;6031735;23;20045;-70
2023/06/14 00:21:52;;;;;;;7.35;6.75;;;;;;;16.54;57.03;100450.13;6054923;23;20022;-69
2023/06/14 00:24:19;;;;;;;7.32;6.75;;;;;;;16.56;57.38;100482.63;6030901;23;20015;-69
2023/06/14 00:26:46;;;;;;;7.50;6.82;;;;;;;16.15;58.15;100426.69;6000673;23;20782;-70
2023/06/14 00:29:12;;;;;;;7.18;6.60;;;;;;;16.41;58.71;100487.34;6058480;23;20034;-70
2023/06/14 00:31:38;;;;;;;7.85;7.15;;;;;;;16.35;58.71;100480.72;6030786;23;20022;-70
2023/06/14 00:34:05;;;;;;;7.65;6.95;;;;;;;16.08;59.19;100451.16;6059347;23;20346;-69
2023/06/14 00:36:32;;;;;;;7.85;7.15;;;;;;;16.23;59.00;100480.88;6027725;23;20014;-70
2023/06/14 00:38:58;;;;;;;7.43;6.82;;;;;;;16.28;58.57;100489.28;6032076;23;20096;-70
2023/06/14 00:41:25;;;;;;;7.10;6.60;;;;;;;16.22;58.99;100493.25;6029063;23;20015;-70
2023/06/14 00:43:52;;;;;;;8.15;7.45;;;;;;;16.17;59.96;100492.78;6052543;23;20026;-70
2023/06/14 00:46:19;;;;;;;6.80;6.20;;;;;;;15.84;60.19;100453.94;6030303;23;20030;-70
2023/06/14 00:48:47;;;;;;;8.52;6.90;;;;;;;16.11;61.01;100509.97;6056516;23;20038;-70
2023/06/14 00:51:13;;;;;;;8.00;6.93;;;;;;;15.93;60.40;100483.16;6030802;23;20023;-70
2023/06/14 00:53:40;;;;;;;8.18;7.40;;;;;;;16.00;60.47;100493.28;6057143;23;20042;-70
2023/06/14 00:56:07;;;;;;;7.40;6.88;;;;;;;15.95;59.93;100489.16;6029250;23;20027;-70
2023/06/14 00:58:33;;;;;;;7.80;7.10;;;;;;;15.78;61.08;100481.72;6055553;23;20033;-70
2023/06/14 01:01:00;;;;;;;9.25;7.45;;;;;;;15.89;60.06;100491.44;6029071;23;20477;-70
2023/06/14 01:03:28;;;;;;;7.25;6.70;;;;;;;15.89;60.14;100487.00;6057911;23;20062;-70
2023/06/14 01:06:10;;;;;;;7.72;7.05;;;;;;;15.67;60.50;100460.50;6029436;23;20054;-70
2023/06/14 01:08:56;;;;;;;10.10;7.17;;;;;;;15.39;60.48;100441.44;6029350;23;20015;-70
2023/06/14 01:11:28;;;;;;;8.05;7.35;;;;;;;15.78;61.44;100509.97;6057054;23;20042;-70
2023/06/14 01:13:56;;;;;;;7.57;7.03;;;;;;;15.73;60.93;100503.22;6028902;23;20019;-70
2023/06/14 01:16:23;;;;;;;7.05;6.55;;;;;;;15.68;61.45;100513.28;6056945;23;20516;-70
2023/06/14 01:18:52;;;;;;;6.90;6.40;;;;;;;15.05;61.59;100422.88;6029791;23;20585;-70
2023/06/14 01:21:23;;;;;;;7.63;7.00;;;;;;;15.56;61.87;100512.44;6026995;23;20094;-69
2023/06/14 01:23:52;;;;;;;8.02;7.38;;;;;;;15.55;62.78;100513.41;6061415;23;20092;-70
2023/06/14 01:26:22;;;;;;;22.95;7.85;;;;;;;15.50;62.38;100510.25;6001038;23;20039;-70
2023/06/14 01:28:50;;;;;;;7.93;7.05;;;;;;;15.29;62.02;100486.25;6055510;23;20030;-69
2023/06/14 01:31:21;;;;;;;7.88;7.20;;;;;;;15.22;63.57;100502.72;6033500;23;20078;-70
2023/06/14 01:33:50;;;;;;;7.18;6.57;;;;;;;15.28;64.34;100552.50;6053869;23;20089;-70
2023/06/14 01:36:19;;;;;;;8.00;7.30;;;;;;;15.15;65.46;100561.34;6027907;23;20036;-70
2023/06/14 01:38:49;;;;;;;7.43;6.80;;;;;;;14.74;66.23;100501.78;6027084;23;20035;-70
2023/06/14 01:41:18;;;;;;;7.88;7.18;;;;;;;15.00;67.57;100566.91;6030378;23;20014;-70
2023/06/14 01:43:46;;;;;;;7.80;7.10;;;;;;;14.80;67.17;100536.63;6025982;23;20779;-70
2023/06/14 01:46:15;;;;;;;7.82;7.10;;;;;;;14.95;67.74;100572.50;6056427;23;20030;-70
2023/06/14 01:48:42;;;;;;;7.18;6.57;;;;;;;14.94;67.52;100565.53;6034238;23;20018;-69
2023/06/14 01:51:08;;;;;;;7.32;6.72;;;;;;;14.91;67.07;100565.75;6030190;23;20023;-70
2023/06/14 01:53:36;;;;;;;7.43;6.82;;;;;;;14.45;67.63;100480.09;6029081;23;20086;-71
2023/06/14 01:56:05;;;;;;;8.82;6.88;;;;;;;14.58;66.91;100511.78;6025983;23;20042;-71
2023/06/14 01:58:32;;;;;;;7.32;6.72;;;;;;;14.83;67.20;100546.97;6026853;23;20027;-71
2023/06/14 02:01:00;;;;;;;7.50;6.75;;;;;;;14.76;66.59;100536.84;5997959;23;20051;-70
2023/06/14 02:03:27;;;;;;;8.43;6.68;;;;;;;14.64;66.62;100510.47;6029709;23;20078;-70
2023/06/14 02:05:55;;;;;;;7.40;6.70;;;;;;;14.48;66.72;100484.31;5998967;23;20046;-70
2023/06/14 02:08:23;;;;;;;7.95;7.18;;;;;;;14.72;66.34;100523.97;5995883;23;20031;-71
2023/06/14 02:10:49;;;;;;;9.55;7.43;;;;;;;14.76;67.24;100544.78;6028420;23;20097;-70
2023/06/14 02:13:16;;;;;;;8.40;7.47;;;;;;;14.63;68.22;100551.88;6029445;23;20072;-71
2023/06/14 02:15:43;;;;;;;8.10;7.35;;;;;;;14.35;69.34;100529.19;6002347;23;20023;-70
2023/06/14 02:18:10;;;;;;;7.30;6.60;;;;;;;13.70;69.82;100441.38;5995407;23;20086;-70
2023/06/14 02:20:36;;;;;;;7.50;6.80;;;;;;;14.54;70.02;100592.13;6003745;23;20517;-71
2023/06/14 02:23:03;;;;;;;7.50;6.72;;;;;;;14.50;70.42;100582.75;6030290;23;20029;-71
2023/06/14 02:25:29;;;;;;;7.50;6.85;;;;;;;13.46;70.74;100422.81;5999390;23;20188;-70
2023/06/14 02:27:56;;;;;;;7.20;6.70;;;;;;;14.29;70.38;100553.41;6026437;23;20025;-71
2023/06/14 02:30:22;;;;;;;7.88;7.25;;;;;;;14.43;70.06;100568.28;5975115;23;20019;-71
2023/06/14 02:32:50;;;;;;;7.47;6.88;;;;;;;14.41;70.31;100565.72;6028826;23;20014;-71
2023/06/14 02:35:17;;;;;;;8.73;6.40;;;;;;;13.85;69.66;100486.97;6027454;23;20059;-70
2023/06/14 02:37:44;;;;;;;8.20;7.43;;;;;;;14.32;69.56;100556.66;6005052;23;20026;-70
2023/06/14 02:40:11;;;;;;;7.40;6.82;;;;;;;13.48;69.76;100435.91;6026178;23;20772;-70
2023/06/14 02:42:37;;;;;;;7.35;6.85;;;;;;;14.34;70.20;100569.78;6029527;23;20095;-69
2023/06/14 02:45:04;;;;;;;7.60;6.97;;;;;;;14.29;70.20;100574.50;5970184;23;20054;-70
2023/06/14 02:47:33;;;;;;;8.07;7.35;;;;;;;14.25;70.29;100578.31;6028556;23;20419;-71
2023/06/14 02:50:00;;;;;;;7.75;7.20;;;;;;;14.22;70.01;100582.03;5999945;23;20038;-71
2023/06/14 02:52:26;;;;;;;7.00;6.40;;;;;;;14.17;70.49;100584.13;6027568;23;20094;-71
2023/06/14 02:54:53;;;;;;;7.40;6.75;;;;;;;14.14;70.62;100581.72;6000282;23;20027;-70
2023/06/14 02:57:21;;;;;;;7.50;6.80;;;;;;;13.64;70.46;100501.63;6026286;23;20050;-71
2023/06/14 02:59:48;;;;;;;7.32;6.55;;;;;;;14.05;70.87;100592.88;6035149;23;20051;-70
2023/06/14 03:02:15;;;;;;;7.20;6.60;;;;;;;14.00;70.29;100592.38;6026749;23;20015;-71
2023/06/14 03:04:44;;;;;;;7.43;6.80;;;;;;;13.96;71.11;100597.00;6025971;23;20046;-70
2023/06/14 03:07:12;;;;;;;7.13;6.32;;;;;;;13.95;71.16;100601.44;6056973;23;20024;-71
2023/06/14 03:09:39;;;;;;;7.35;6.68;;;;;;;13.96;71.21;100608.41;6050235;23;20100;-71
2023/06/14 03:12:09;;;;;;;7.68;6.70;;;;;;;13.93;71.54;100607.75;6028028;23;20023;-71
2023/06/14 03:14:36;;;;;;;8.07;7.28;;;;;;;13.94;71.72;100618.22;6028570;23;20120;-71
2023/06/14 03:17:04;;;;;;;7.20;6.60;;;;;;;13.57;71.65;100561.84;6055745;23;20016;-71
2023/06/14 03:19:31;;;;;;;9.77;6.93;;;;;;;13.58;72.11;100579.34;6027078;23;20093;-71
2023/06/14 03:21:58;;;;;;;8.30;7.47;;;;;;;13.79;74.05;100655.31;6056439;23;20029;-71
2023/06/14 03:24:27;;;;;;;6.90;6.40;;;;;;;13.27;74.35;100576.06;6026555;23;20759;-70
2023/06/14 03:26:54;;;;;;;7.63;7.03;;;;;;;13.76;74.29;100675.69;6053658;23;20050;-70
2023/06/14 03:29:21;;;;;;;7.22;6.63;;;;;;;13.75;73.86;100673.13;6003208;23;20023;-71
2023/06/14 03:32:17;;;;;;;7.70;7.00;;;;;;;12.63;74.56;100499.41;6050792;23;20014;-71
2023/06/14 03:34:46;;;;;;;9.13;7.03;;;;;;;13.66;74.75;100679.88;6008666;23;20041;-71
2023/06/14 03:37:12;;;;;;;7.43;6.82;;;;;;;13.31;74.41;100619.75;6028498;23;20015;-69
2023/06/14 03:39:46;;;;;;;7.40;6.63;;;;;;;13.75;74.68;100687.19;6029651;23;20045;-70
2023/06/14 03:42:14;;;;;;;7.38;6.88;;;;;;;13.78;74.99;100691.41;6034988;23;20569;-70
2023/06/14 03:44:40;;;;;;;7.95;7.25;;;;;;;13.81;74.68;100701.78;6055649;23;20508;-70
2023/06/14 03:47:07;;;;;;;7.72;6.97;;;;;;;13.57;74.79;100652.31;6023872;23;20018;-70
2023/06/14 03:49:33;;;;;;;7.45;6.65;;;;;;;13.93;73.89;100700.97;6019289;23;20022;-68
2023/06/14 03:51:59;;;;;;;7.60;6.90;;;;;;;14.07;73.42;100707.97;6009363;23;20039;-68
2023/06/14 03:54:26;;;;;;;6.97;6.30;;;;;;;14.16;73.37;100711.78;6056083;23;20022;-68
2023/06/14 03:57:13;;;;;;;7.35;6.53;;;;;;;14.25;72.40;100700.59;6026257;23;20017;-68
2023/06/14 03:59:39;;;;;;;7.22;6.55;;;;;;;14.33;71.18;100703.56;6052259;23;20062;-68
2023/06/14 04:02:06;;;;;;;8.20;7.47;;;;;;;14.42;70.52;100690.69;6024072;23;20034;-68
2023/06/14 04:04:35;;;;;;;7.97;7.22;;;;;;;14.62;70.56;100713.13;6055529;23;20030;-68
2023/06/14 04:07:03;;;;;;;8.52;7.68;;;;;;;14.77;69.80;100706.75;6025363;23;20078;-67
2023/06/14 04:09:30;;;;;;;9.40;7.82;;;;;;;14.81;69.05;100665.97;6052742;23;20041;-67
2023/06/14 04:11:56;;;;;;;8.02;7.25;;;;;;;15.90;67.83;100731.34;6027886;23;20086;-69
2023/06/14 04:14:22;;;;;;;7.90;6.97;;;;;;;16.76;64.67;100743.38;6034781;23;20021;-67
2023/06/14 04:16:49;;;;;;;9.60;7.70;;;;;;;17.65;62.68;100748.75;6056857;23;20025;-67
2023/06/14 04:19:15;;;;;;;8.10;7.30;;;;;;;18.37;60.05;100731.34;6031473;23;20023;-67
2023/06/14 04:21:42;;;;;;;7.80;7.10;;;;;;;18.81;58.50;100711.63;6060963;23;20063;-67
2023/06/14 04:24:13;;;;;;;15.00;7.82;;;;;;;19.02;56.08;100650.38;6029937;23;20034;-67
2023/06/14 04:26:44;;;;;;;8.27;7.57;;;;;;;19.46;55.10;100658.03;6030319;23;20444;-67
2023/06/14 04:29:16;;;;;;;8.40;7.70;;;;;;;19.87;54.24;100646.28;6030291;23;20030;-70
2023/06/14 04:31:44;;;;;;;8.02;7.32;;;;;;;20.42;52.97;100642.09;6056884;23;20037;-68
2023/06/14 04:34:16;;;;;;;9.00;8.10;;;;;;;20.46;52.14;100567.03;6029362;23;20084;-67
2023/06/14 04:36:49;;;;;;;8.50;7.72;;;;;;;20.80;51.22;100558.44;6031014;23;20035;-67
2023/06/14 04:39:20;;;;;;;8.40;7.75;;;;;;;21.45;50.21;100576.97;6032116;23;20019;-67
2023/06/14 04:41:47;;;;;;;8.20;7.50;;;;;;;22.06;49.70;100606.47;6056616;23;20025;-67
2023/06/14 04:44:16;;;;;;;8.55;7.57;;;;;;;22.29;48.46;100559.53;6005825;23;20095;-67
2023/06/14 04:46:46;;;;;;;8.20;7.50;;;;;;;22.85;46.42;100505.53;6027782;23;20085;-67
2023/06/14 04:49:16;;;;;;;9.40;7.78;;;;;;;22.41;45.13;100364.03;6030335;23;20559;-67
2023/06/14 04:51:44;;;;;;;8.30;7.60;;;;;;;23.25;43.98;100479.81;6030854;23;20026;-67
2023/06/14 04:54:14;;;;;;;7.82;6.82;;;;;;;23.29;43.92;100460.59;6059555;23;20105;-67
2023/06/14 04:56:44;;;;;;;8.15;7.53;;;;;;;23.14;43.45;100365.06;6033061;23;20147;-67
2023/06/14 04:59:11;;;;;;;7.88;7.20;;;;;;;24.45;42.59;100512.03;6056725;23;20089;-69
2023/06/14 05:01:38;;;;;;;8.48;7.78;;;;;;;24.71;41.84;100552.00;6028998;23;20508;-69
2023/06/14 05:04:04;;;;;;;8.32;7.72;;;;;;;24.76;41.86;100538.91;6054942;23;20022;-69
2023/06/14 05:06:31;;;;;;;10.63;7.93;;;;;;;24.18;42.28;100491.88;6029874;23;20038;-67
2023/06/14 05:08:58;;;;;;;8.25;7.68;;;;;;;22.89;44.85;100509.56;6029562;23;20027;-67
2023/06/14 05:11:26;;;;;;;8.82;7.75;;;;;;;21.84;48.13;100613.16;6031165;23;20031;-67
2023/06/14 05:13:52;;;;;;;7.80;7.10;;;;;;;21.87;49.06;100656.44;6030943;23;20030;-67
2023/06/14 05:16:20;;;;;;;8.00;7.50;;;;;;;22.68;46.95;100674.03;6054013;23;20046;-68
2023/06/14 05:18:47;;;;;;;7.75;7.15;;;;;;;22.64;47.34;100710.13;6029005;23;20037;-67
2023/06/14 05:21:17;;;;;;;7.53;6.93;;;;;;;22.55;46.56;100627.31;6028075;23;20126;-67
2023/06/14 05:23:47;;;;;;;8.25;7.43;;;;;;;22.63;46.94;100651.44;6052836;23;20101;-67
2023/06/14 05:26:13;;;;;;;8.90;7.28;;;;;;;21.70;46.95;100537.94;6029862;23;20708;-67
2023/06/14 05:28:40;;;;;;;7.50;7.00;;;;;;;22.63;46.32;100652.31;6058282;23;20042;-67
2023/06/14 05:31:06;;;;;;;7.95;7.35;;;;;;;21.98;47.21;100596.56;6028221;23;20033;-67
2023/06/14 05:33:32;;;;;;;7.95;7.35;;;;;;;21.85;46.45;100588.97;6054081;23;20626;-67
2023/06/14 05:35:59;;;;;;;7.95;7.35;;;;;;;21.97;47.66;100660.84;6028467;23;20101;-67
2023/06/14 05:38:25;;;;;;;8.23;7.55;;;;;;;22.29;46.15;100610.34;6050900;23;20025;-67
2023/06/14 05:40:53;;;;;;;7.68;6.97;;;;;;;22.21;44.93;100548.78;6004440;23;20018;-67
2023/06/14 05:43:19;;;;;;;8.55;7.28;;;;;;;20.59;45.45;100339.28;6057154;23;20429;-68
2023/06/14 05:45:46;;;;;;;7.78;7.15;;;;;;;21.97;44.96;100567.31;6026922;23;20038;-69
2023/06/14 05:48:12;;;;;;;7.38;6.78;;;;;;;22.23;44.27;100554.81;6049338;23;20023;-68
2023/06/14 05:50:38;;;;;;;8.35;6.85;;;;;;;22.53;43.56;100565.13;6004494;23;20536;-69
2023/06/14 05:53:05;;;;;;;7.82;7.22;;;;;;;22.56;42.14;100472.03;6057147;23;20508;-68
2023/06/14 05:55:31;;;;;;;7.50;6.85;;;;;;;22.63;42.14;100531.06;6031680;23;20054;-68
2023/06/14 05:57:58;;;;;;;7.63;7.03;;;;;;;22.87;41.53;100500.84;6055899;23;20022;-68
2023/06/14 06:00:24;;;;;;;7.20;6.47;;;;;;;22.63;41.39;100480.25;6003906;23;20282;-68
2023/06/14 06:02:50;;;;;;;6.80;6.40;;;;;;;22.87;42.36;100538.31;6057108;23;20042;-68
2023/06/14 06:05:17;;;;;;;7.45;6.80;;;;;;;22.66;40.77;100447.81;6029718;23;20010;-68
2023/06/14 06:07:45;;;;;;;7.65;7.00;;;;;;;23.23;40.92;100552.31;6053891;23;20018;-69
2023/06/14 06:10:11;;;;;;;8.02;7.20;;;;;;;23.43;39.15;100509.97;6027546;23;20475;-70
2023/06/14 06:12:38;;;;;;;7.45;6.95;;;;;;;24.02;38.23;100535.69;6054820;23;20025;-70
2023/06/14 06:15:05;;;;;;;7.18;6.68;;;;;;;24.56;37.72;100578.75;6030865;23;20038;-70
2023/06/14 06:17:31;;;;;;;7.00;6.57;;;;;;;25.23;38.14;100700.94;6056528;23;20520;-70
2023/06/14 06:20:18;;;;;;;9.10;6.88;;;;;;;24.15;37.27;100481.50;6026058;23;20081;-70
2023/06/14 06:22:44;;;;;;;6.90;6.40;;;;;;;23.53;38.16;100425.91;6060522;23;20041;-70
2023/06/14 06:25:10;;;;;;;7.20;6.63;;;;;;;24.12;37.02;100520.22;6026197;23;20098;-70
2023/06/14 06:27:37;;;;;;;6.97;6.47;;;;;;;24.19;36.52;100448.78;6055009;23;20036;-70
2023/06/14 06:30:05;;;;;;;9.95;6.60;;;;;;;23.53;39.00;100506.25;6027932;23;20033;-70
2023/06/14 06:32:31;;;;;;;7.03;6.43;;;;;;;23.26;39.34;100537.75;6057217;23;20511;-69
2023/06/14 06:34:59;;;;;;;7.88;7.15;;;;;;;22.69;39.52;100443.00;6029332;23;20092;-70
2023/06/14 06:37:26;;;;;;;7.05;6.47;;;;;;;22.48;40.51;100502.28;6031785;23;20026;-70
2023/06/14 06:39:52;;;;;;;7.10;6.60;;;;;;;21.75;40.41;100422.63;6029144;23;20085;-70
2023/06/14 06:42:18;;;;;;;7.63;7.03;;;;;;;22.33;41.55;100578.78;6026209;23;20023;-70
2023/06/14 06:44:45;;;;;;;7.75;6.68;;;;;;;22.18;40.92;100514.31;6038875;23;20026;-70
2023/06/14 06:47:11;;;;;;;6.45;6.05;;;;;;;22.54;40.47;100558.81;6026170;23;20041;-70
2023/06/14 06:49:38;;;;;;;6.88;6.38;;;;;;;22.41;39.84;100503.94;6026228;23;20025;-70
2023/06/14 06:52:06;;;;;;;6.72;6.32;;;;;;;22.21;41.55;100553.25;6010962;23;20015;-69
2023/06/14 06:54:33;;;;;;;6.80;6.35;;;;;;;22.64;41.14;100619.19;6025872;23;20206;-71
2023/06/14 06:57:01;;;;;;;7.07;6.57;;;;;;;22.98;39.87;100602.25;6026151;23;20046;-70
2023/06/14 06:59:27;;;;;;;6.90;6.40;;;;;;;23.16;39.02;100588.75;6032930;23;20030;-70
2023/06/14 07:01:54;;;;;;;6.97;6.38;;;;;;;23.14;39.12;100596.13;6027037;23;20636;-70
2023/06/14 07:04:20;;;;;;;7.07;6.38;;;;;;;23.00;39.52;100568.13;6029128;23;20010;-70
2023/06/14 07:06:47;;;;;;;6.60;6.10;;;;;;;22.81;39.55;100538.97;6055776;23;20763;-71
2023/06/14 07:09:15;;;;;;;6.57;6.18;;;;;;;22.46;38.95;100466.00;6021894;23;20033;-68
2023/06/14 07:11:46;;;;;;;6.93;6.43;;;;;;;22.80;39.38;100566.75;6058561;23;20580;-70
2023/06/14 07:14:13;;;;;;;7.05;6.50;;;;;;;22.73;39.02;100531.75;6026647;23;20026;-71
2023/06/14 07:16:40;;;;;;;6.60;6.10;;;;;;;22.52;39.44;100497.44;6055078;23;20018;-70
2023/06/14 07:19:08;;;;;;;6.72;6.32;;;;;;;21.23;38.88;100289.19;6027727;23;20285;-71
2023/06/14 07:21:37;;;;;;;6.60;6.00;;;;;;;22.23;39.99;100512.03;6054097;23;20014;-70
2023/06/14 07:24:07;;;;;;;7.00;6.40;;;;;;;22.43;40.27;100555.41;6026441;23;20056;-68
2023/06/14 07:26:35;;;;;;;6.70;6.28;;;;;;;22.90;39.21;100556.72;6030437;23;20093;-71
2023/06/14 07:29:02;;;;;;;6.55;6.15;;;;;;;22.43;38.06;100416.38;6026827;23;20031;-71
2023/06/14 07:31:28;;;;;;;6.10;5.80;;;;;;;21.71;36.94;100287.72;6054667;23;20569;-71
2023/06/14 07:33:55;;;;;;;6.20;5.90;;;;;;;21.90;36.05;100287.41;6028359;23;20101;-71
2023/06/14 07:36:22;;;;;;;6.63;6.22;;;;;;;21.92;38.72;100453.75;6029833;23;20023;-71
2023/06/14 07:38:48;;;;;;;6.28;5.80;;;;;;;22.80;35.92;100432.97;6025684;23;20031;-68
2023/06/14 07:41:15;;;;;;;6.82;6.43;;;;;;;22.40;35.03;100292.88;6021469;23;20556;-71
2023/06/14 07:43:42;;;;;;;5.85;5.53;;;;;;;22.76;35.38;100389.66;6021620;23;20028;-71
2023/06/14 07:46:09;;;;;;;5.78;5.45;;;;;;;22.86;35.89;100426.94;6033665;23;20092;-71
2023/06/14 07:48:36;;;;;;;6.03;5.63;;;;;;;22.73;34.61;100370.41;6056547;23;20053;-71
2023/06/14 07:51:02;;;;;;;6.30;5.90;;;;;;;22.54;35.01;100411.72;6032270;23;20030;-71
2023/06/14 07:53:30;;;;;;;6.03;5.60;;;;;;;22.56;36.07;100469.38;6058534;23;20624;-71
2023/06/14 07:55:57;;;;;;;6.25;5.95;;;;;;;22.07;36.28;100389.84;6032203;23;20438;-69
2023/06/14 07:58:23;;;;;;;5.80;5.50;;;;;;;22.87;34.73;100439.31;6056537;23;20028;-69
2023/06/14 08:00:50;;;;;;;6.00;5.65;;;;;;;23.18;33.15;100411.91;6031609;23;20030;-69
2023/06/14 08:03:18;;;;;;;6.13;5.72;;;;;;;22.96;33.07;100360.72;6058037;23;20532;-69
2023/06/14 08:05:44;;;;;;;5.80;5.50;;;;;;;22.56;33.45;100329.47;6030832;23;20047;-71
2023/06/14 08:08:11;;;;;;;6.13;5.82;;;;;;;22.63;35.27;100483.78;6052296;23;20502;-71
2023/06/14 08:10:37;;;;;;;5.60;5.30;;;;;;;22.43;33.01;100360.22;6032555;23;20029;-69
2023/06/14 08:13:04;;;;;;;5.63;5.32;;;;;;;22.49;32.09;100294.50;6059034;23;20110;-71
2023/06/14 08:15:30;;;;;;;5.95;5.55;;;;;;;22.34;31.31;100248.91;6030578;23;20077;-68
2023/06/14 08:17:59;;;;;;;5.97;5.57;;;;;;;22.41;31.16;100332.81;6028910;23;20054;-71
2023/06/14 08:20:26;;;;;;;5.97;5.63;;;;;;;22.02;30.81;100249.72;6032534;23;20082;-69
2023/06/14 08:22:55;;;;;;;6.00;5.60;;;;;;;22.20;32.11;100341.25;6034121;23;20022;-69
2023/06/14 08:25:21;;;;;;;5.45;5.22;;;;;;;22.41;32.46;100393.44;6029522;23;20050;-69
2023/06/14 08:27:48;;;;;;;5.82;5.10;;;;;;;22.15;30.75;100274.13;6028336;23;20803;-72
2023/06/14 08:30:14;;;;;;;5.80;5.45;;;;;;;22.29;31.17;100323.41;6029980;23;20019;-69
2023/06/14 08:32:41;;;;;;;5.90;5.53;;;;;;;22.67;32.02;100441.47;6058591;23;20565;-71
2023/06/14 08:35:08;;;;;;;5.50;5.20;;;;;;;22.47;32.48;100414.19;6030064;23;20066;-71
2023/06/14 08:37:41;;;;;;;6.05;5.65;;;;;;;22.62;32.66;100450.00;6029053;23;20026;-71
2023/06/14 08:40:29;;;;;;;5.68;5.38;;;;;;;23.02;33.34;100586.72;6028274;23;20026;-69
2023/06/14 08:42:56;;;;;;;5.63;5.32;;;;;;;23.23;32.60;100489.88;6028279;23;20602;-71
2023/06/14 08:45:23;;;;;;;5.70;5.40;;;;;;;22.98;32.15;100420.25;6057694;23;20033;-71
2023/06/14 08:47:57;;;;;;;5.78;5.45;;;;;;;22.88;32.35;100443.66;6028484;23;20652;-71
2023/06/14 08:50:27;;;;;;;6.15;5.80;;;;;;;23.14;32.60;100537.22;6054104;23;20018;-70
2023/06/14 08:52:57;;;;;;;5.72;5.43;;;;;;;23.20;32.38;100500.94;6029540;23;20007;-70
2023/06/14 08:55:27;;;;;;;6.13;5.78;;;;;;;21.94;32.79;100320.00;6057529;23;20677;-69
2023/06/14 08:57:57;;;;;;;6.97;5.85;;;;;;;22.91;32.68;100464.72;6026361;23;20078;-70
2023/06/14 09:00:25;;;;;;;5.75;5.45;;;;;;;22.81;33.39;100458.69;6029819;23;20074;-69
2023/06/14 09:02:57;;;;;;;5.82;5.43;;;;;;;23.06;33.32;100562.13;6058218;23;20027;-70
2023/06/14 09:05:27;;;;;;;5.93;5.63;;;;;;;23.14;32.76;100489.03;6029697;23;20097;-69
2023/06/14 09:08:00;;;;;;;11.32;6.00;;;;;;;22.74;33.66;100482.63;6028985;23;20030;-69
2023/06/14 09:10:37;;;;;;;5.70;5.30;;;;;;;23.25;33.42;100526.19;6031505;23;20031;-69
2023/06/14 09:13:04;;;;;;;5.78;5.47;;;;;;;22.69;33.23;100420.72;6057358;23;20037;-69
2023/06/14 09:15:31;;;;;;;5.90;5.60;;;;;;;23.29;34.99;100629.28;6027592;23;20011;-69
2023/06/14 09:18:00;;;;;;;5.50;5.20;;;;;;;23.10;34.06;100581.41;6057114;23;20027;-69
2023/06/14 09:20:30;;;;;;;6.70;6.10;;;;;;;23.29;34.32;100588.25;6028699;23;20041;-69
2023/06/14 09:22:56;;;;;;;5.80;5.50;;;;;;;23.61;33.03;100565.19;6054427;23;20033;-69
2023/06/14 09:25:24;;;;;;;6.13;5.68;;;;;;;23.47;31.86;100455.06;6030392;23;20385;-70
2023/06/14 09:28:06;;;;;;;5.77;5.43;;;;;;;23.22;34.47;100579.25;6057831;23;20039;-69
2023/06/14 09:30:33;;;;;;;5.53;5.15;;;;;;;23.43;34.91;100638.53;6027868;23;20304;-69
2023/06/14 09:32:59;;;;;;;6.00;5.60;;;;;;;22.15;34.13;100374.81;6024483;23;20539;-71
2023/06/14 09:35:30;;;;;;;5.50;5.20;;;;;;;22.85;34.06;100463.56;6058470;23;20504;-68
2023/06/14 09:37:57;;;;;;;5.65;5.35;;;;;;;22.93;35.32;100576.97;6030247;23;20022;-71
2023/06/14 09:40:23;;;;;;;6.30;5.90;;;;;;;22.52;34.87;100500.13;6057678;23;20756;-70
2023/06/14 09:42:51;;;;;;;5.75;5.45;;;;;;;22.82;36.60;100603.03;6027999;23;20026;-69
2023/06/14 09:45:22;;;;;;;5.68;5.38;;;;;;;22.88;37.21;100649.72;6054181;23;20030;-69
2023/06/14 09:47:54;;;;;;;5.95;5.65;;;;;;;23.10;36.78;100700.00;6005041;23;20046;-69
2023/06/14 09:50:32;;;;;;;6.05;5.57;;;;;;;23.25;36.05;100662.75;6052839;23;20650;-69
2023/06/14 09:53:06;;;;;;;5.65;5.35;;;;;;;23.02;37.87;100709.84;6026487;23;20048;-70
2023/06/14 09:55:36;;;;;;;8.43;5.60;;;;;;;23.27;38.01;100726.84;6057536;23;20049;-69
2023/06/14 09:58:07;;;;;;;6.15;5.72;;;;;;;23.19;37.73;100722.28;6028547;23;20080;-69
2023/06/14 10:00:36;;;;;;;5.83;5.53;;;;;;;23.02;38.03;100716.03;6058306;23;20018;-69
2023/06/14 10:03:13;;;;;;;5.97;5.68;;;;;;;22.79;38.39;100685.47;6027865;23;20078;-71
2023/06/14 10:05:45;;;;;;;6.00;5.60;;;;;;;22.52;37.29;100591.06;6050505;23;20026;-69
2023/06/14 10:08:15;;;;;;;;;;;;;;;22.74;35.77;100537.97;6027148;23;20528;-69
2023/06/14 10:10:43;;;;;;;6.15;5.45;;;;;;;23.14;36.71;100662.22;6057316;23;20362;-69
2023/06/14 10:13:10;;;;;;;5.78;5.47;;;;;;;22.80;35.51;100526.63;6029603;23;20018;-69
2023/06/14 10:15:52;;;;;;;6.20;5.70;;;;;;;23.12;35.90;100566.00;6056772;23;20602;-69
2023/06/14 10:18:32;;;;;;;5.80;5.50;;;;;;;22.53;34.62;100436.75;6028212;23;20035;-67
2023/06/14 10:21:13;;;;;;;6.05;5.75;;;;;;;23.09;34.16;100508.28;6054148;23;20688;-67
2023/06/14 10:23:45;;;;;;;5.93;5.63;;;;;;;23.27;34.20;100548.28;6029335;23;20050;-69
2023/06/14 10:26:24;;;;;;;5.72;5.43;;;;;;;22.80;33.79;100422.25;6056667;23;20628;-67
2023/06/14 10:29:09;;;;;;;6.15;5.75;;;;;;;23.47;34.13;100538.09;6029204;23;20569;-67
2023/06/14 10:31:45;;;;;;;6.20;5.80;;;;;;;23.14;34.69;100539.91;6025819;23;20034;-66
2023/06/14 10:34:23;;;;;;;9.75;5.65;;;;;;;23.30;34.82;100584.59;6024772;23;20094;-67
2023/06/14 10:37:04;;;;;;;6.10;5.70;;;;;;;22.78;35.54;100520.59;6058240;23;20089;-69
2023/06/14 10:39:32;;;;;;;5.95;5.50;;;;;;;22.90;36.13;100596.88;6026767;23;20042;-67
2023/06/14 10:42:01;;;;;;;5.88;5.43;;;;;;;23.44;36.27;100691.06;6055591;23;20021;-67
2023/06/14 10:44:28;;;;;;;5.70;5.40;;;;;;;23.04;36.13;100598.94;6029355;23;20018;-67
2023/06/14 10:46:57;;;;;;;5.78;5.47;;;;;;;22.49;36.43;100537.88;6054940;23;20026;-67
2023/06/14 10:49:44;;;;;;;6.10;5.70;;;;;;;23.27;35.72;100617.06;6027819;23;20025;-67
2023/06/14 10:52:16;;;;;;;7.25;6.75;;;;;;;23.34;36.56;100658.25;6053326;23;20090;-67
2023/06/14 10:55:18;;;;;;;6.00;5.70;;;;;;;23.33;36.18;100629.78;6031038;23;20077;-67
2023/06/14 10:57:58;;;;;;;6.05;5.65;;;;;;;23.20;37.34;100637.47;6053386;23;20022;-67
2023/06/14 11:00:26;;;;;;;6.18;5.82;;;;;;;22.97;37.04;100621.13;6026289;23;20048;-67
2023/06/14 11:03:09;;;;;;;5.57;5.22;;;;;;;23.28;38.05;100715.13;6023516;23;20018;-67
2023/06/14 11:05:47;;;;;;;6.28;5.80;;;;;;;23.31;37.55;100650.53;6033623;23;20464;-67
2023/06/14 11:08:42;;;;;;;6.10;5.80;;;;;;;23.40;37.28;100692.41;6023810;23;20066;-67
2023/06/14 11:11:09;;;;;;;5.88;5.57;;;;;;;23.91;37.07;100716.44;6026659;23;20089;-67
2023/06/14 11:13:41;;;;;;;6.43;6.00;;;;;;;23.55;36.89;100620.25;6063038;23;20078;-68
2023/06/14 11:16:15;;;;;;;5.97;5.57;;;;;;;23.47;37.91;100674.69;6027986;23;20110;-67
2023/06/14 11:18:43;;;;;;;6.18;5.72;;;;;;;23.79;37.61;100761.50;6055174;23;20580;-67
2023/06/14 11:21:10;;;;;;;6.28;5.88;;;;;;;23.87;37.39;100683.81;6031935;23;20086;-66
2023/06/14 11:23:36;;;;;;;6.22;5.88;;;;;;;23.50;37.16;100678.88;6065320;23;20030;-67
2023/06/14 11:26:06;;;;;;;6.00;5.70;;;;;;;23.18;37.31;100613.53;6036175;23;20089;-68
2023/06/14 11:28:37;;;;;;;5.97;5.57;;;;;;;24.40;37.35;100764.72;6035174;23;20026;-68
2023/06/14 11:31:04;;;;;;;6.00;5.70;;;;;;;23.87;36.92;100654.31;6065602;23;20224;-68
2023/06/14 11:33:31;;;;;;;6.10;5.80;;;;;;;24.64;36.23;100712.06;6036310;23;20093;-68